createdAt,value
2018-07-28T00:01:13.295Z,9.60
2018-07-28T00:03:43.566Z,8.50
2018-07-28T00:06:14.027Z,9.37
2018-07-28T00:08:44.168Z,9.40
2018-07-28T00:11:14.250Z,9.60
2018-07-28T00:13:44.927Z,9.77
2018-07-28T00:16:15.257Z,8.70
2018-07-28T00:18:45.532Z,9.87
2018-07-28T00:21:15.661Z,7.80
2018-07-28T00:23:45.974Z,9.13
2018-07-28T00:26:19.056Z,9.93
2018-07-28T00:28:49.940Z,10.80
2018-07-28T00:31:20.036Z,8.40
2018-07-28T00:33:50.290Z,9.50
2018-07-28T00:36:20.427Z,10.90
2018-07-28T00:38:50.987Z,9.47
2018-07-28T00:41:21.238Z,7.87
2018-07-28T00:43:51.419Z,7.00
2018-07-28T00:46:21.727Z,6.10
2018-07-28T00:48:51.896Z,6.30
2018-07-28T00:51:22.048Z,6.07
2018-07-28T00:53:52.107Z,5.53
2018-07-28T00:56:22.778Z,6.20
2018-07-28T00:58:53.124Z,6.40
2018-07-28T01:01:23.217Z,4.70
2018-07-28T01:03:54.250Z,5.30
2018-07-28T01:06:24.274Z,6.20
2018-07-28T01:08:54.319Z,6.13
2018-07-28T01:11:24.529Z,5.17
2018-07-28T01:13:54.724Z,5.13
2018-07-28T01:16:24.905Z,5.70
2018-07-28T01:18:54.897Z,4.90
2018-07-28T01:21:25.524Z,5.87
2018-07-28T01:23:55.725Z,5.10
2018-07-28T01:26:25.818Z,5.77
2018-07-28T01:29:00.968Z,5.70
2018-07-28T01:31:31.383Z,6.07
2018-07-28T01:34:01.667Z,5.83
2018-07-28T01:36:32.052Z,6.20
2018-07-28T01:39:02.196Z,6.13
2018-07-28T01:41:32.192Z,6.50
2018-07-28T01:44:02.521Z,6.20
2018-07-28T01:46:33.090Z,5.83
2018-07-28T01:49:03.403Z,5.87
2018-07-28T01:51:33.955Z,6.60
2018-07-28T01:54:04.525Z,5.70
2018-07-28T01:56:34.670Z,5.97
2018-07-28T01:59:04.870Z,6.33
2018-07-28T02:01:35.256Z,5.53
2018-07-28T02:04:05.375Z,5.00
2018-07-28T02:06:35.914Z,6.17
2018-07-28T02:09:09.104Z,5.73
2018-07-28T02:11:39.330Z,5.80
2018-07-28T02:14:14.447Z,5.27
2018-07-28T02:16:45.083Z,5.50
2018-07-28T02:19:15.230Z,5.63
2018-07-28T02:21:45.471Z,5.40
2018-07-28T02:24:15.790Z,5.27
2018-07-28T02:26:45.936Z,5.50
2018-07-28T02:29:16.217Z,5.17
2018-07-28T02:31:46.360Z,5.50
2018-07-28T02:34:16.535Z,5.20
2018-07-28T02:36:46.762Z,5.40
2018-07-28T02:39:17.356Z,6.13
2018-07-28T02:41:47.442Z,5.40
2018-07-28T02:44:18.383Z,5.67
2018-07-28T02:46:48.681Z,5.47
2018-07-28T02:49:18.887Z,5.50
2018-07-28T02:51:49.090Z,5.17
2018-07-28T02:54:19.398Z,5.97
2018-07-28T02:56:51.177Z,6.13
2018-07-28T02:59:21.330Z,5.80
2018-07-28T03:01:51.650Z,4.70
2018-07-28T03:04:21.701Z,6.13
2018-07-28T03:06:53.157Z,5.97
2018-07-28T03:09:24.031Z,5.40
2018-07-28T03:11:53.821Z,6.00
2018-07-28T03:14:24.035Z,5.60
2018-07-28T03:16:54.300Z,5.73
2018-07-28T03:19:24.555Z,5.80
2018-07-28T03:21:55.876Z,6.03
2018-07-28T03:24:26.188Z,6.67
2018-07-28T03:26:56.405Z,5.60
2018-07-28T03:29:26.394Z,5.97
2018-07-28T03:31:56.443Z,5.47
2018-07-28T03:34:26.206Z,5.90
2018-07-28T03:36:56.486Z,5.57
2018-07-28T03:39:26.408Z,6.33
2018-07-28T03:41:56.634Z,5.80
2018-07-28T03:44:26.996Z,5.73
2018-07-28T03:46:57.123Z,5.90
2018-07-28T03:49:29.350Z,5.70
2018-07-28T03:51:59.640Z,5.87
2018-07-28T03:54:29.970Z,6.27
2018-07-28T03:57:00.077Z,5.63
2018-07-28T03:59:30.386Z,6.07
2018-07-28T04:02:00.693Z,6.40
2018-07-28T04:04:30.859Z,6.50
2018-07-28T04:07:00.724Z,6.20
2018-07-28T04:09:31.000Z,6.50
2018-07-28T04:12:01.094Z,6.37
2018-07-28T04:14:31.297Z,6.50
2018-07-28T04:17:01.874Z,6.60
2018-07-28T04:19:32.330Z,6.03
2018-07-28T04:22:02.189Z,6.33
2018-07-28T04:24:32.679Z,5.73
2018-07-28T04:27:03.085Z,6.47
2018-07-28T04:29:33.312Z,6.30
2018-07-28T04:32:03.684Z,5.83
2018-07-28T04:34:34.005Z,6.47
2018-07-28T04:37:04.413Z,6.60
2018-07-28T04:39:34.846Z,5.50
2018-07-28T04:42:05.923Z,5.70
2018-07-28T04:44:36.006Z,6.43
2018-07-28T04:47:06.241Z,6.70
2018-07-28T04:49:36.187Z,5.77
2018-07-28T04:52:06.292Z,6.33
2018-07-28T04:54:36.448Z,5.73
2018-07-28T04:57:06.688Z,5.77
2018-07-28T04:59:37.727Z,6.20
2018-07-28T05:02:08.411Z,5.63
2018-07-28T05:04:38.669Z,6.33
2018-07-28T05:07:09.103Z,6.17
2018-07-28T05:09:39.646Z,6.00
2018-07-28T05:12:09.971Z,5.70
2018-07-28T05:14:40.736Z,6.30
2018-07-28T05:17:11.307Z,6.03
2018-07-28T05:19:41.452Z,5.83
2018-07-28T05:22:11.779Z,6.00
2018-07-28T05:24:42.049Z,5.07
2018-07-28T05:27:11.991Z,5.93
2018-07-28T05:29:42.027Z,6.03
2018-07-28T05:32:12.490Z,6.00
2018-07-28T05:34:42.735Z,5.93
2018-07-28T05:37:12.618Z,5.87
2018-07-28T05:39:43.233Z,6.90
2018-07-28T05:42:14.135Z,7.57
2018-07-28T05:44:45.215Z,5.90
2018-07-28T05:47:15.436Z,5.40
2018-07-28T05:49:45.928Z,5.57
2018-07-28T05:52:16.237Z,6.13
2018-07-28T05:54:46.444Z,5.77
2018-07-28T05:57:17.455Z,6.43
2018-07-28T05:59:48.377Z,6.87
2018-07-28T06:02:18.602Z,6.40
2018-07-28T06:04:48.873Z,5.80
2018-07-28T06:07:18.997Z,6.30
2018-07-28T06:09:49.076Z,8.33
2018-07-28T06:12:19.639Z,7.40
2018-07-28T06:14:50.071Z,8.50
2018-07-28T06:17:20.351Z,9.53
2018-07-28T06:19:50.618Z,9.30
2018-07-28T06:22:21.249Z,8.73
2018-07-28T06:24:51.784Z,8.20
2018-07-28T06:27:21.865Z,8.80
2018-07-28T06:29:52.121Z,8.97
2018-07-28T06:32:22.208Z,8.90
2018-07-28T06:34:52.205Z,10.43
2018-07-28T06:37:22.123Z,9.30
2018-07-28T06:39:52.619Z,8.70
2018-07-28T06:42:22.922Z,10.17
2018-07-28T06:44:53.143Z,9.60
2018-07-28T06:47:23.082Z,9.23
2018-07-28T06:49:53.414Z,9.90
2018-07-28T06:52:23.557Z,7.90
2018-07-28T06:54:53.857Z,8.90
2018-07-28T06:57:24.324Z,9.03
2018-07-28T06:59:54.583Z,9.57
2018-07-28T07:02:24.851Z,9.30
2018-07-28T07:04:55.627Z,8.97
2018-07-28T07:07:25.795Z,9.00
2018-07-28T07:09:55.694Z,8.23
2018-07-28T07:12:25.623Z,8.50
2018-07-28T07:14:55.739Z,8.70
2018-07-28T07:17:26.040Z,7.83
2018-07-28T07:19:56.020Z,8.23
2018-07-28T07:22:26.774Z,9.40
2018-07-28T07:24:56.962Z,9.40
2018-07-28T07:27:27.574Z,8.87
2018-07-28T07:29:57.420Z,9.77
2018-07-28T07:32:27.250Z,8.80
2018-07-28T07:34:57.400Z,8.97
2018-07-28T07:37:28.325Z,9.40
2018-07-28T07:39:58.554Z,9.03
2018-07-28T07:42:28.753Z,9.60
2018-07-28T07:44:58.725Z,9.37
2018-07-28T07:47:28.733Z,10.43
2018-07-28T07:49:59.108Z,10.20
2018-07-28T07:52:29.547Z,10.07
2018-07-28T07:54:59.494Z,10.30
2018-07-28T07:57:29.723Z,10.10
2018-07-28T08:00:00.268Z,9.57
2018-07-28T08:02:30.074Z,10.17
2018-07-28T08:05:00.227Z,9.40
2018-07-28T08:07:30.698Z,10.17
2018-07-28T08:10:01.298Z,10.73
2018-07-28T08:12:31.359Z,10.60
2018-07-28T08:15:01.699Z,10.50
2018-07-28T08:17:31.965Z,9.23
2018-07-28T08:20:02.064Z,11.50
2018-07-28T08:22:32.468Z,10.60
2018-07-28T08:25:03.178Z,10.87
2018-07-28T08:27:33.212Z,9.47
2018-07-28T08:30:03.235Z,11.17
2018-07-28T08:32:33.216Z,10.77
2018-07-28T08:35:03.919Z,11.10
2018-07-28T08:37:34.244Z,11.20
2018-07-28T08:40:04.305Z,11.80
2018-07-28T08:42:34.751Z,12.00
2018-07-28T08:45:06.542Z,11.20
2018-07-28T08:47:36.717Z,11.23
2018-07-28T08:50:07.526Z,14.43
2018-07-28T08:52:37.815Z,11.13
2018-07-28T08:55:07.699Z,11.50
2018-07-28T08:57:37.843Z,12.13
2018-07-28T09:00:08.578Z,11.00
2018-07-28T09:02:38.747Z,10.90
2018-07-28T09:05:08.833Z,11.30
2018-07-28T09:07:39.167Z,11.63
2018-07-28T09:10:09.786Z,12.23
2018-07-28T09:12:40.742Z,11.70
2018-07-28T09:15:11.854Z,10.30
2018-07-28T09:17:42.043Z,11.03
2018-07-28T09:20:12.180Z,11.20
2018-07-28T09:22:42.645Z,12.90
2018-07-28T09:25:12.823Z,12.60
2018-07-28T09:27:42.976Z,11.80
2018-07-28T09:30:13.072Z,10.57
2018-07-28T09:32:43.199Z,11.60
2018-07-28T09:35:13.420Z,11.37
2018-07-28T09:37:43.316Z,12.10
2018-07-28T09:40:13.633Z,11.13
2018-07-28T09:42:43.697Z,11.70
2018-07-28T09:45:13.786Z,11.07
2018-07-28T09:47:43.987Z,10.20
2018-07-28T09:50:13.975Z,10.13
2018-07-28T09:52:44.214Z,9.67
2018-07-28T09:55:14.271Z,10.00
2018-07-28T09:57:44.344Z,9.93
2018-07-28T10:00:18.577Z,9.37
2018-07-28T10:02:48.889Z,31.60
2018-07-28T10:05:19.288Z,10.43
2018-07-28T10:07:49.126Z,8.30
2018-07-28T10:10:19.998Z,13.40
2018-07-28T10:12:50.078Z,10.50
2018-07-28T10:15:20.256Z,9.77
2018-07-28T10:17:50.201Z,9.20
2018-07-28T10:20:20.911Z,8.80
2018-07-28T10:22:51.724Z,9.67
2018-07-28T10:25:21.867Z,7.00
2018-07-28T10:27:51.927Z,7.63
2018-07-28T10:30:22.036Z,7.90
2018-07-28T10:32:52.125Z,6.83
2018-07-28T10:35:22.710Z,7.40
2018-07-28T10:37:52.666Z,7.80
2018-07-28T10:40:23.192Z,7.30
2018-07-28T10:42:53.333Z,8.10
2018-07-28T10:45:23.887Z,7.00
2018-07-28T10:47:53.895Z,6.73
2018-07-28T10:50:23.877Z,7.07
2018-07-28T10:52:54.352Z,7.77
2018-07-28T10:55:24.470Z,7.30
2018-07-28T10:57:54.403Z,7.20
2018-07-28T11:00:24.837Z,6.60
2018-07-28T11:02:55.090Z,7.40
2018-07-28T11:05:25.035Z,6.70
2018-07-28T11:07:55.128Z,7.17
2018-07-28T11:10:25.205Z,6.20
2018-07-28T11:12:55.263Z,6.77
2018-07-28T11:15:26.100Z,7.17
2018-07-28T11:17:56.556Z,6.33
2018-07-28T11:20:26.835Z,7.13
2018-07-28T11:22:56.988Z,6.50
2018-07-28T11:25:27.632Z,6.73
2018-07-28T11:27:57.428Z,6.70
2018-07-28T11:30:27.298Z,5.43
2018-07-28T11:33:07.886Z,6.37
2018-07-28T11:35:48.856Z,6.63
2018-07-28T11:38:29.760Z,6.70
2018-07-28T11:41:10.476Z,6.10
2018-07-28T11:43:51.084Z,6.47
2018-07-28T11:46:21.231Z,5.80
2018-07-28T11:48:51.165Z,5.80
2018-07-28T11:51:21.393Z,5.97
2018-07-28T11:53:51.432Z,6.27
2018-07-28T11:56:21.464Z,5.73
2018-07-28T11:58:51.469Z,6.10
2018-07-28T12:01:21.342Z,6.07
2018-07-28T12:03:51.325Z,5.70
2018-07-28T12:06:21.127Z,5.23
2018-07-28T12:08:51.448Z,5.77
2018-07-28T12:11:21.449Z,5.87
2018-07-28T12:13:51.599Z,5.50
2018-07-28T12:16:21.733Z,6.23
2018-07-28T12:18:51.818Z,5.83
2018-07-28T12:21:21.856Z,5.73
2018-07-28T12:23:52.043Z,5.37
2018-07-28T12:26:22.215Z,5.43
2018-07-28T12:28:52.467Z,5.23
2018-07-28T12:31:22.367Z,5.20
2018-07-28T12:33:52.183Z,5.20
2018-07-28T12:36:22.498Z,4.77
2018-07-28T12:38:52.464Z,5.57
2018-07-28T12:41:22.663Z,5.90
2018-07-28T12:43:52.811Z,5.53
2018-07-28T12:46:22.736Z,4.83
2018-07-28T12:48:53.006Z,5.23
2018-07-28T12:51:23.224Z,4.73
2018-07-28T12:53:53.410Z,4.73
2018-07-28T12:56:23.898Z,5.87
2018-07-28T12:58:54.084Z,5.43
2018-07-28T13:01:23.987Z,5.20
2018-07-28T13:03:54.315Z,4.80
2018-07-28T13:06:25.377Z,5.10
2018-07-28T13:08:55.891Z,5.27
2018-07-28T13:11:26.243Z,5.00
2018-07-28T13:13:56.987Z,5.23
2018-07-28T13:16:26.965Z,4.80
2018-07-28T13:18:57.724Z,4.97
2018-07-28T13:21:27.649Z,4.83
2018-07-28T13:23:58.126Z,5.40
2018-07-28T13:26:28.374Z,4.73
2018-07-28T13:28:58.348Z,5.00
2018-07-28T13:31:28.254Z,4.73
2018-07-28T13:33:58.546Z,5.60
2018-07-28T13:36:32.589Z,5.73
2018-07-28T13:39:03.817Z,5.50
2018-07-28T13:41:33.937Z,5.40
2018-07-28T13:44:04.006Z,5.20
2018-07-28T13:46:34.436Z,5.53
2018-07-28T13:49:04.717Z,5.50
2018-07-28T13:51:34.956Z,5.80
2018-07-28T13:54:05.347Z,4.60
2018-07-28T13:56:35.628Z,4.60
2018-07-28T13:59:06.068Z,5.07
2018-07-28T14:01:36.528Z,5.40
2018-07-28T14:04:06.802Z,4.83
2018-07-28T14:06:37.192Z,6.40
2018-07-28T14:09:09.711Z,6.23
2018-07-28T14:11:40.131Z,5.67
2018-07-28T14:14:10.556Z,6.00
2018-07-28T14:16:40.522Z,6.20
2018-07-28T14:19:11.377Z,6.30
2018-07-28T14:21:41.519Z,5.50
2018-07-28T14:24:11.330Z,5.50
2018-07-28T14:26:41.701Z,6.60
2018-07-28T14:29:11.571Z,6.20
2018-07-28T14:31:41.619Z,5.60
2018-07-28T14:34:11.519Z,5.73
2018-07-28T14:36:41.812Z,5.50
2018-07-28T14:39:12.085Z,5.37
2018-07-28T14:41:42.626Z,6.07
2018-07-28T14:44:13.677Z,5.53
2018-07-28T14:46:43.786Z,5.30
2018-07-28T14:49:13.819Z,4.90
2018-07-28T14:51:43.620Z,4.80
2018-07-28T14:54:13.770Z,4.60
2018-07-28T14:56:44.337Z,4.10
2018-07-28T14:59:15.237Z,4.77
2018-07-28T15:01:45.446Z,4.00
2018-07-28T15:04:15.615Z,4.03
2018-07-28T15:06:46.317Z,4.27
2018-07-28T15:09:16.428Z,4.70
2018-07-28T15:11:46.300Z,4.20
2018-07-28T15:14:16.142Z,4.80
2018-07-28T15:16:45.969Z,5.40
2018-07-28T15:19:15.854Z,5.90
2018-07-28T15:21:45.768Z,4.90
2018-07-28T15:24:16.434Z,5.20
2018-07-28T15:26:46.544Z,5.60
2018-07-28T15:29:16.279Z,5.00
2018-07-28T15:31:46.171Z,5.10
2018-07-28T15:34:16.090Z,5.13
2018-07-28T15:36:46.504Z,5.00
2018-07-28T15:39:21.587Z,4.73
2018-07-28T15:41:51.799Z,5.50
2018-07-28T15:44:21.595Z,4.80
2018-07-28T15:46:51.575Z,4.93
2018-07-28T15:49:21.973Z,5.27
2018-07-28T15:51:52.036Z,5.97
2018-07-28T15:54:22.263Z,5.40
2018-07-28T15:56:52.223Z,6.00
2018-07-28T15:59:22.862Z,5.87
2018-07-28T16:01:53.090Z,6.13
2018-07-28T16:04:23.015Z,5.40
2018-07-28T16:06:53.215Z,6.23
2018-07-28T16:09:23.393Z,5.70
2018-07-28T16:11:53.477Z,6.50
2018-07-28T16:14:23.702Z,5.83
2018-07-28T16:16:53.780Z,5.60
2018-07-28T16:19:24.034Z,6.03
2018-07-28T16:21:54.535Z,6.10
2018-07-28T16:24:25.046Z,6.30
2018-07-28T16:26:55.179Z,5.63
2018-07-28T16:29:25.779Z,7.10
2018-07-28T16:31:58.145Z,5.83
2018-07-28T16:34:28.267Z,6.60
2018-07-28T16:36:58.293Z,6.07
2018-07-28T16:39:28.422Z,6.70
2018-07-28T16:41:58.569Z,6.10
2018-07-28T16:44:29.647Z,6.13
2018-07-28T16:46:59.628Z,7.80
2018-07-28T16:49:29.629Z,6.30
2018-07-28T16:51:59.535Z,7.00
2018-07-28T16:54:29.695Z,7.27
2018-07-28T16:57:00.097Z,7.33
2018-07-28T16:59:30.020Z,6.60
2018-07-28T17:02:00.217Z,6.50
2018-07-28T17:04:30.506Z,6.97
2018-07-28T17:07:00.645Z,7.57
2018-07-28T17:09:30.943Z,7.10
2018-07-28T17:12:01.006Z,7.37
2018-07-28T17:14:31.187Z,7.13
2018-07-28T17:17:02.447Z,6.67
2018-07-28T17:19:32.626Z,6.30
2018-07-28T17:22:02.688Z,7.07
2018-07-28T17:24:32.758Z,6.97
2018-07-28T17:27:03.213Z,7.20
2018-07-28T17:29:33.521Z,6.67
2018-07-28T17:32:03.815Z,7.57
2018-07-28T17:34:34.145Z,7.07
2018-07-28T17:37:04.473Z,7.33
2018-07-28T17:39:34.757Z,6.53
2018-07-28T17:42:05.551Z,6.40
2018-07-28T17:44:37.525Z,7.07
2018-07-28T17:47:07.828Z,6.50
2018-07-28T17:49:38.660Z,6.40
2018-07-28T17:52:08.737Z,6.73
2018-07-28T17:54:38.791Z,7.27
2018-07-28T17:57:09.121Z,7.13
2018-07-28T17:59:39.092Z,6.90
2018-07-28T18:02:09.315Z,7.10
2018-07-28T18:04:39.233Z,7.20
2018-07-28T18:07:09.014Z,6.13
2018-07-28T18:09:39.558Z,7.03
2018-07-28T18:12:09.553Z,6.20
2018-07-28T18:14:39.771Z,6.77
2018-07-28T18:17:09.744Z,6.57
2018-07-28T18:19:39.728Z,6.93
2018-07-28T18:22:10.065Z,7.17
2018-07-28T18:24:42.865Z,6.73
2018-07-28T18:27:12.776Z,7.20
2018-07-28T18:29:42.966Z,6.67
2018-07-28T18:32:12.993Z,7.23
2018-07-28T18:34:43.101Z,6.63
2018-07-28T18:37:13.178Z,7.30
2018-07-28T18:39:44.448Z,7.30
2018-07-28T18:42:14.512Z,7.10
2018-07-28T18:44:44.531Z,6.67
2018-07-28T18:47:14.553Z,7.53
2018-07-28T18:49:44.434Z,7.30
2018-07-28T18:52:16.115Z,7.10
2018-07-28T18:54:46.249Z,7.60
2018-07-28T18:57:16.345Z,7.30
2018-07-28T18:59:46.296Z,7.03
2018-07-28T19:02:16.150Z,7.17
2018-07-28T19:04:45.975Z,7.57
2018-07-28T19:07:16.272Z,7.70
2018-07-28T19:09:50.335Z,7.53
2018-07-28T19:12:26.259Z,7.00
2018-07-28T19:14:56.123Z,6.77
2018-07-28T19:17:29.936Z,7.50
2018-07-28T19:19:59.981Z,6.97
2018-07-28T19:23:36.243Z,6.63
2018-07-28T19:26:06.694Z,6.30
2018-07-28T19:28:41.576Z,6.40
2018-07-28T19:31:11.695Z,6.70
2018-07-28T19:33:41.599Z,7.07
2018-07-28T19:36:16.522Z,7.00
2018-07-28T19:38:46.945Z,6.20
2018-07-28T19:41:16.709Z,6.33
2018-07-28T19:43:46.631Z,5.97
2018-07-28T19:46:16.648Z,7.13
2018-07-28T19:48:46.928Z,6.73
2018-07-28T19:51:17.459Z,6.33
2018-07-28T19:53:47.557Z,6.07
2018-07-28T19:56:17.673Z,7.00
2018-07-28T19:58:47.608Z,6.60
2018-07-28T20:01:17.790Z,6.60
2018-07-28T20:03:48.003Z,6.77
2018-07-28T20:06:18.693Z,6.70
2018-07-28T20:08:48.941Z,6.80
2018-07-28T20:11:19.524Z,8.00
2018-07-28T20:13:49.861Z,7.90
2018-07-28T20:16:20.228Z,8.57
2018-07-28T20:18:50.197Z,8.40
2018-07-28T20:21:20.275Z,8.13
2018-07-28T20:23:50.606Z,7.97
2018-07-28T20:26:21.616Z,7.50
2018-07-28T20:28:51.894Z,7.90
2018-07-28T20:31:21.878Z,7.47
2018-07-28T20:33:52.053Z,8.10
2018-07-28T20:36:22.544Z,8.70
2018-07-28T20:38:52.944Z,8.13
2018-07-28T20:41:23.139Z,7.63
2018-07-28T20:43:53.377Z,7.70
2018-07-28T20:46:23.295Z,8.50
2018-07-28T20:48:53.879Z,8.17
2018-07-28T20:51:23.814Z,8.80
2018-07-28T20:53:53.972Z,8.07
2018-07-28T20:56:24.638Z,8.40
2018-07-28T20:58:54.612Z,8.60
2018-07-28T21:01:24.680Z,8.97
2018-07-28T21:03:54.785Z,8.20
2018-07-28T21:06:24.693Z,7.77
2018-07-28T21:08:54.520Z,8.40
2018-07-28T21:11:24.531Z,8.30
2018-07-28T21:13:54.283Z,8.33
2018-07-28T21:16:24.125Z,8.80
2018-07-28T21:18:54.444Z,8.30
2018-07-28T21:21:24.360Z,8.07
2018-07-28T21:23:54.348Z,7.83
2018-07-28T21:26:24.222Z,7.33
2018-07-28T21:28:53.998Z,7.50
2018-07-28T21:31:23.918Z,8.40
2018-07-28T21:33:53.894Z,7.57
2018-07-28T21:36:23.976Z,8.30
2018-07-28T21:38:53.798Z,7.60
2018-07-28T21:41:23.959Z,8.13
2018-07-28T21:43:54.011Z,6.90
2018-07-28T21:46:24.170Z,8.07
2018-07-28T21:48:54.191Z,7.73
2018-07-28T21:51:24.276Z,7.80
2018-07-28T21:53:54.417Z,7.60
2018-07-28T21:56:24.800Z,7.60
2018-07-28T21:58:55.955Z,8.13
2018-07-28T22:01:25.918Z,8.20
2018-07-28T22:03:55.788Z,7.63
2018-07-28T22:06:25.868Z,7.00
2018-07-28T22:08:56.242Z,7.67
2018-07-28T22:11:26.266Z,7.87
2018-07-28T22:13:56.078Z,7.63
2018-07-28T22:16:26.097Z,8.40
2018-07-28T22:18:56.047Z,7.93
2018-07-28T22:21:25.879Z,7.30
2018-07-28T22:23:55.873Z,8.27
2018-07-28T22:26:26.169Z,8.00
2018-07-28T22:28:56.037Z,7.57
2018-07-28T22:31:26.547Z,8.17
2018-07-28T22:33:56.480Z,8.63
2018-07-28T22:36:26.124Z,8.07
2018-07-28T22:38:56.087Z,7.93
2018-07-28T22:41:25.964Z,7.70
2018-07-28T22:43:56.175Z,8.40
2018-07-28T22:46:26.330Z,7.80
2018-07-28T22:48:56.311Z,8.13
2018-07-28T22:51:26.197Z,8.00
2018-07-28T22:53:56.037Z,8.87
2018-07-28T22:56:26.439Z,7.63
2018-07-28T22:58:56.270Z,8.30
2018-07-28T23:01:26.143Z,8.30
2018-07-28T23:03:56.076Z,7.63
2018-07-28T23:06:26.298Z,7.90
2018-07-28T23:08:56.218Z,7.47
2018-07-28T23:11:26.317Z,7.17
2018-07-28T23:13:56.157Z,7.37
2018-07-28T23:16:26.565Z,8.23
2018-07-28T23:19:01.669Z,8.10
2018-07-28T23:21:31.975Z,7.27
2018-07-28T23:24:01.942Z,7.40
2018-07-28T23:26:32.407Z,7.70
2018-07-28T23:29:03.197Z,7.23
2018-07-28T23:31:33.200Z,7.10
2018-07-28T23:34:03.222Z,7.77
2018-07-28T23:36:33.302Z,6.50
2018-07-28T23:39:03.843Z,6.30
2018-07-28T23:41:33.899Z,7.23
2018-07-28T23:44:04.303Z,6.97
2018-07-28T23:46:34.347Z,6.90
2018-07-28T23:49:04.198Z,6.60
2018-07-28T23:51:37.332Z,7.13
2018-07-28T23:54:07.288Z,7.43
2018-07-28T23:56:37.243Z,6.87
2018-07-28T23:59:07.122Z,6.53
